No.3tokuyomaru — JD3132 — position and weather

sailwx.info

Track history (hours):
 
Tides and Currents Weather Stations Pressure Air Temp Water Temp Dewpoint Dewpoint Depression Visibility Wind Speed Wind Dir Waves Ship Positions

No.3tokuyomaru

Last reported at 2015-Jan-29 09:32 UTC. Time now 2015-Jan-31 21:11 UTC.
Position N 34°60' E 139°43'.

Length 67 m; draft 4.6 m.

Type: Tanker. MMSI: 431002151.

Date/timePositionNaut miles runAvg speedWind from/ knotsBaromVisibWave heightAir tempDewpointWater temp
2015-Jan-29 09:32N 34°60' E 139°43'1313.1
2015-Jan-29 08:33N 35°12' E 139°46'1312.7
2015-Jan-29 07:33N 35°24' E 139°43'5 0.8
2015-Jan-29 01:33N 35°29' E 139°42'5 5.2
2015-Jan-29 00:33N 35°24' E 139°45'0 0.0
2015-Jan-28 23:33N 35°24' E 139°45'0 0.0
2015-Jan-28 22:33N 35°24' E 139°45'0 0.0
2015-Jan-28 21:33N 35°24' E 139°45'0 0.0
2015-Jan-28 20:33N 35°24' E 139°45'0 0.0
2015-Jan-28 19:33N 35°24' E 139°45'0 0.0
2015-Jan-28 18:33N 35°24' E 139°45'0 0.0
2015-Jan-28 17:33N 35°24' E 139°45'0 0.0
2015-Jan-28 16:33N 35°24' E 139°45'0 0.0
2015-Jan-28 15:33N 35°24' E 139°45'5 5.4
2015-Jan-28 14:33N 35°19' E 139°44'1111.4
2015-Jan-28 13:34N 35°08' E 139°46'1311.6
2015-Jan-28 12:28N 34°55' E 139°46'2 0.1
2015-Jan-27 08:31N 34°57' E 139°44'1111.6
2015-Jan-27 07:33N 35°08' E 139°45'1212.1
2015-Jan-27 06:34N 35°20' E 139°43'1110.6
2015-Jan-27 05:34N 35°30' E 139°44'0 0.0
2015-Jan-27 00:33N 35°30' E 139°45'3 3.2
2015-Jan-26 23:27N 35°29' E 139°49'0 0.1
2015-Jan-26 22:33N 35°29' E 139°49'0 0.0
2015-Jan-26 21:33N 35°29' E 139°49'0 0.0
2015-Jan-26 20:33N 35°29' E 139°49'0 0.0
2015-Jan-26 19:33N 35°29' E 139°49'2 1.7
2015-Jan-26 18:33N 35°27' E 139°48'1111.4
2015-Jan-26 17:33N 35°16' E 139°46'1212.0
2015-Jan-26 16:33N 35°04' E 139°45'1211.3
2015-Jan-26 15:32N 34°52' E 139°46'  
2015-Jan-22 09:33N 34°60' E 139°43'1312.9
2015-Jan-22 08:33N 35°13' E 139°46'1211.9
2015-Jan-22 07:33N 35°24' E 139°43'5 0.8
2015-Jan-22 01:33N 35°29' E 139°42'5 5.5
2015-Jan-22 00:33N 35°24' E 139°45'0 0.0
2015-Jan-21 23:33N 35°24' E 139°45'0 0.0
2015-Jan-21 22:45N 35°24' E 139°45'0 0.0
2015-Jan-21 22:33N 35°24' E 139°45'0 0.0
2015-Jan-21 21:34N 35°24' E 139°45'0 0.0
2015-Jan-21 20:27N 35°24' E 139°45'0 0.1
2015-Jan-21 19:33N 35°24' E 139°45'0 0.0
2015-Jan-21 18:34N 35°24' E 139°45'0 0.0
2015-Jan-21 17:33N 35°24' E 139°45'0 0.0
2015-Jan-21 16:33N 35°24' E 139°45'0 0.0
2015-Jan-21 15:33N 35°24' E 139°45'0 0.1
2015-Jan-21 14:33N 35°24' E 139°45'1010.5
2015-Jan-21 13:33N 35°14' E 139°47'1212.1
2015-Jan-21 12:33N 35°02' E 139°44'9 0.4
2015-Jan-20 12:10N 34°53' E 139°49'812.7
2015-Jan-20 11:33N 34°60' E 139°43'1313.1
2015-Jan-20 10:33N 35°12' E 139°46'1312.6
2015-Jan-20 09:33N 35°25' E 139°43'6 1.0
2015-Jan-20 03:33N 35°30' E 139°47'2 1.6
2015-Jan-20 02:20N 35°29' E 139°48'0 0.0
2015-Jan-20 01:17N 35°29' E 139°48'0 0.0
2015-Jan-20 00:26N 35°29' E 139°48'0 0.1
2015-Jan-19 23:32N 35°29' E 139°49'0 0.0
2015-Jan-19 22:32N 35°29' E 139°48'0 0.0
2015-Jan-19 21:32N 35°29' E 139°48'0 0.0
2015-Jan-19 20:29N 35°29' E 139°48'0 0.0
2015-Jan-19 19:32N 35°29' E 139°48'0 0.0
2015-Jan-19 18:32N 35°29' E 139°48'0 0.0
2015-Jan-19 17:32N 35°29' E 139°49'0 0.0
2015-Jan-19 16:29N 35°29' E 139°49'0 0.0
2015-Jan-19 15:20N 35°29' E 139°49'0 0.1
2015-Jan-19 14:26N 35°29' E 139°48'0 0.0
2015-Jan-19 13:26N 35°29' E 139°48'6 7.0
2015-Jan-19 12:34N 35°23' E 139°46'1110.6
2015-Jan-19 11:33N 35°13' E 139°47'1212.2
2015-Jan-19 10:34N 35°01' E 139°44'  
Track history (hours):
 
Tides and Currents Weather Stations Pressure Air Temp Water Temp Dewpoint Dewpoint Depression Visibility Wind Speed Wind Dir Waves Ship Positions

No.3tokuyomaru

Last reported at 2015-Jan-29 09:32 UTC. Time now 2015-Jan-31 21:11 UTC.
Position N 34°60' E 139°43'.

Length 67 m; draft 4.6 m.

Type: Tanker. MMSI: 431002151.

Date/timePositionNaut miles runAvg speedWind from/ knotsBaromVisibWave heightAir tempDewpointWater temp
2015-Jan-29 09:32N 34°60' E 139°43'1313.1
2015-Jan-29 08:33N 35°12' E 139°46'1312.7
2015-Jan-29 07:33N 35°24' E 139°43'5 0.8
2015-Jan-29 01:33N 35°29' E 139°42'5 5.2
2015-Jan-29 00:33N 35°24' E 139°45'0 0.0
2015-Jan-28 23:33N 35°24' E 139°45'0 0.0
2015-Jan-28 22:33N 35°24' E 139°45'0 0.0
2015-Jan-28 21:33N 35°24' E 139°45'0 0.0
2015-Jan-28 20:33N 35°24' E 139°45'0 0.0
2015-Jan-28 19:33N 35°24' E 139°45'0 0.0
2015-Jan-28 18:33N 35°24' E 139°45'0 0.0
2015-Jan-28 17:33N 35°24' E 139°45'0 0.0
2015-Jan-28 16:33N 35°24' E 139°45'0 0.0
2015-Jan-28 15:33N 35°24' E 139°45'5 5.4
2015-Jan-28 14:33N 35°19' E 139°44'1111.4
2015-Jan-28 13:34N 35°08' E 139°46'1311.6
2015-Jan-28 12:28N 34°55' E 139°46'2 0.1
2015-Jan-27 08:31N 34°57' E 139°44'1111.6
2015-Jan-27 07:33N 35°08' E 139°45'1212.1
2015-Jan-27 06:34N 35°20' E 139°43'1110.6
2015-Jan-27 05:34N 35°30' E 139°44'0 0.0
2015-Jan-27 00:33N 35°30' E 139°45'3 3.2
2015-Jan-26 23:27N 35°29' E 139°49'0 0.1
2015-Jan-26 22:33N 35°29' E 139°49'0 0.0
2015-Jan-26 21:33N 35°29' E 139°49'0 0.0
2015-Jan-26 20:33N 35°29' E 139°49'0 0.0
2015-Jan-26 19:33N 35°29' E 139°49'2 1.7
2015-Jan-26 18:33N 35°27' E 139°48'1111.4
2015-Jan-26 17:33N 35°16' E 139°46'1212.0
2015-Jan-26 16:33N 35°04' E 139°45'1211.3
2015-Jan-26 15:32N 34°52' E 139°46'  
2015-Jan-22 09:33N 34°60' E 139°43'1312.9
2015-Jan-22 08:33N 35°13' E 139°46'1211.9
2015-Jan-22 07:33N 35°24' E 139°43'5 0.8
2015-Jan-22 01:33N 35°29' E 139°42'5 5.5
2015-Jan-22 00:33N 35°24' E 139°45'0 0.0
2015-Jan-21 23:33N 35°24' E 139°45'0 0.0
2015-Jan-21 22:45N 35°24' E 139°45'0 0.0
2015-Jan-21 22:33N 35°24' E 139°45'0 0.0
2015-Jan-21 21:34N 35°24' E 139°45'0 0.0
2015-Jan-21 20:27N 35°24' E 139°45'0 0.1
2015-Jan-21 19:33N 35°24' E 139°45'0 0.0
2015-Jan-21 18:34N 35°24' E 139°45'0 0.0
2015-Jan-21 17:33N 35°24' E 139°45'0 0.0
2015-Jan-21 16:33N 35°24' E 139°45'0 0.0
2015-Jan-21 15:33N 35°24' E 139°45'0 0.1
2015-Jan-21 14:33N 35°24' E 139°45'1010.5
2015-Jan-21 13:33N 35°14' E 139°47'1212.1
2015-Jan-21 12:33N 35°02' E 139°44'9 0.4
2015-Jan-20 12:10N 34°53' E 139°49'812.7
2015-Jan-20 11:33N 34°60' E 139°43'1313.1
2015-Jan-20 10:33N 35°12' E 139°46'1312.6
2015-Jan-20 09:33N 35°25' E 139°43'6 1.0
2015-Jan-20 03:33N 35°30' E 139°47'2 1.6
2015-Jan-20 02:20N 35°29' E 139°48'0 0.0
2015-Jan-20 01:17N 35°29' E 139°48'0 0.0
2015-Jan-20 00:26N 35°29' E 139°48'0 0.1
2015-Jan-19 23:32N 35°29' E 139°49'0 0.0
2015-Jan-19 22:32N 35°29' E 139°48'0 0.0
2015-Jan-19 21:32N 35°29' E 139°48'0 0.0
2015-Jan-19 20:29N 35°29' E 139°48'0 0.0
2015-Jan-19 19:32N 35°29' E 139°48'0 0.0
2015-Jan-19 18:32N 35°29' E 139°48'0 0.0
2015-Jan-19 17:32N 35°29' E 139°49'0 0.0
2015-Jan-19 16:29N 35°29' E 139°49'0 0.0
2015-Jan-19 15:20N 35°29' E 139°49'0 0.1
2015-Jan-19 14:26N 35°29' E 139°48'0 0.0
2015-Jan-19 13:26N 35°29' E 139°48'6 7.0
2015-Jan-19 12:34N 35°23' E 139°46'1110.6
2015-Jan-19 11:33N 35°13' E 139°47'1212.2
2015-Jan-19 10:34N 35°01' E 139°44'  

Dump ship's entire track history